createdAt,value
2019-04-29T00:00:48.984Z,101961.44
2019-04-29T00:01:55.175Z,101961.83
2019-04-29T00:03:00.190Z,101957.45
2019-04-29T00:04:05.331Z,101957.45
2019-04-29T00:05:11.124Z,101961.83
2019-04-29T00:06:16.589Z,101959.17
2019-04-29T00:07:22.023Z,101964.48
2019-04-29T00:08:27.221Z,101963.16
2019-04-29T00:09:32.280Z,101963.62
2019-04-29T00:10:37.744Z,101967.14
2019-04-29T00:11:42.950Z,101961.44
2019-04-29T00:12:48.053Z,101963.62
2019-04-29T00:13:53.299Z,101963.70
2019-04-29T00:15:16.176Z,101966.00
2019-04-29T00:16:39.583Z,101966.16
2019-04-29T00:17:56.941Z,101969.02
2019-04-29T00:19:39.365Z,101970.25
2019-04-29T00:20:49.650Z,101972.70
2019-04-29T00:21:54.772Z,101974.70
2019-04-29T00:22:59.702Z,101970.83
2019-04-29T00:24:10.493Z,101974.42
2019-04-29T00:25:12.427Z,101977.93
2019-04-29T00:26:17.587Z,101975.74
2019-04-29T00:27:22.665Z,101973.48
2019-04-29T00:28:27.898Z,101978.79
2019-04-29T00:29:32.862Z,101979.53
2019-04-29T00:30:37.838Z,101981.72
2019-04-29T00:31:42.925Z,101980.78
2019-04-29T00:32:47.925Z,101986.09
2019-04-29T00:33:52.896Z,101987.31
2019-04-29T00:34:57.889Z,101983.80
2019-04-29T00:36:03.163Z,101985.52
2019-04-29T00:37:31.400Z,101985.13
2019-04-29T00:38:55.357Z,101989.50
2019-04-29T00:40:17.387Z,101981.25
2019-04-29T00:41:40.330Z,101986.64
2019-04-29T00:42:52.562Z,101990.63
2019-04-29T00:44:00.691Z,101989.41
2019-04-29T00:45:06.117Z,101990.45
2019-04-29T00:46:11.914Z,101994.44
2019-04-29T00:47:16.880Z,101991.78
2019-04-29T00:48:22.245Z,101993.11
2019-04-29T00:49:27.389Z,101991.28
2019-04-29T00:50:32.787Z,101987.80
2019-04-29T00:51:38.076Z,101989.67
2019-04-29T00:52:43.216Z,101990.64
2019-04-29T00:53:49.235Z,101991.19
2019-04-29T00:55:00.599Z,101993.64
2019-04-29T00:56:06.009Z,101989.84
2019-04-29T00:57:11.004Z,101989.67
2019-04-29T00:58:16.145Z,101988.53
2019-04-29T00:59:21.199Z,101994.39
2019-04-29T01:00:38.138Z,101993.25
2019-04-29T01:01:46.551Z,101995.62
2019-04-29T01:02:51.517Z,101989.64
2019-04-29T01:03:56.583Z,101992.77
2019-04-29T01:05:01.732Z,101988.50
2019-04-29T01:06:06.956Z,101995.59
2019-04-29T01:07:11.984Z,101991.62
2019-04-29T01:08:17.065Z,101992.55
2019-04-29T01:09:23.838Z,101997.39
2019-04-29T01:10:29.365Z,102001.77
2019-04-29T01:11:35.413Z,101997.39
2019-04-29T01:12:40.450Z,101995.13
2019-04-29T01:13:45.854Z,102001.19
2019-04-29T01:14:51.027Z,101994.55
2019-04-29T01:15:56.197Z,101998.45
2019-04-29T01:17:01.346Z,101994.84
2019-04-29T01:18:06.645Z,101999.31
2019-04-29T01:19:11.762Z,101993.16
2019-04-29T01:20:20.196Z,101996.27
2019-04-29T01:21:25.296Z,101997.20
2019-04-29T01:22:30.849Z,101998.64
2019-04-29T01:23:35.877Z,101993.80
2019-04-29T01:24:41.071Z,101995.67
2019-04-29T01:25:48.263Z,101989.54
2019-04-29T01:27:15.265Z,101994.92
2019-04-29T01:28:28.662Z,101991.12
2019-04-29T01:29:33.845Z,101991.12
2019-04-29T01:31:12.359Z,101996.04
2019-04-29T01:32:17.605Z,101988.66
2019-04-29T01:33:24.282Z,101987.41
2019-04-29T01:34:38.455Z,101988.84
2019-04-29T01:35:43.843Z,101992.82
2019-04-29T01:36:48.837Z,101991.10
2019-04-29T01:37:53.854Z,101994.69
2019-04-29T01:39:01.310Z,101995.66
2019-04-29T01:40:37.861Z,101999.23
2019-04-29T01:41:53.945Z,101998.38
2019-04-29T01:42:59.482Z,102004.73
2019-04-29T01:44:05.965Z,102006.63
2019-04-29T01:45:11.159Z,102003.97
2019-04-29T01:46:18.949Z,102010.21
2019-04-29T01:47:24.082Z,102007.63
2019-04-29T01:48:29.533Z,102009.61
2019-04-29T01:49:34.828Z,102012.26
2019-04-29T01:50:40.061Z,102011.43
2019-04-29T01:51:45.069Z,102011.04
2019-04-29T01:52:50.332Z,102012.83
2019-04-29T01:53:55.499Z,102009.31
2019-04-29T01:55:01.073Z,102011.90
2019-04-29T01:56:06.230Z,102011.43
2019-04-29T01:57:11.348Z,102015.77
2019-04-29T01:58:16.452Z,102016.55
2019-04-29T01:59:21.603Z,102013.05
2019-04-29T02:00:26.912Z,102016.16
2019-04-29T02:01:31.938Z,102015.77
2019-04-29T02:02:37.129Z,102013.58
2019-04-29T02:03:42.278Z,102011.50
2019-04-29T02:04:47.386Z,102010.64
2019-04-29T02:05:52.625Z,102014.34
2019-04-29T02:06:57.562Z,102013.58
2019-04-29T02:08:02.530Z,102018.48
2019-04-29T02:09:11.212Z,102021.22
2019-04-29T02:10:28.488Z,102005.30
2019-04-29T02:11:33.703Z,102005.30
2019-04-29T02:12:38.689Z,102018.27
2019-04-29T02:13:43.879Z,102021.86
2019-04-29T02:14:49.001Z,102025.08
2019-04-29T02:15:54.226Z,102019.38
2019-04-29T02:16:59.609Z,102016.37
2019-04-29T02:18:04.817Z,102019.02
2019-04-29T02:19:10.066Z,102021.28
2019-04-29T02:20:15.308Z,102014.27
2019-04-29T02:21:20.430Z,102018.23
2019-04-29T02:22:45.912Z,102023.54
2019-04-29T02:24:02.580Z,102023.17
2019-04-29T02:25:20.742Z,102021.85
2019-04-29T02:26:26.043Z,102024.11
2019-04-29T02:27:31.093Z,102019.84
2019-04-29T02:28:36.358Z,102022.57
2019-04-29T02:29:41.322Z,102026.65
2019-04-29T02:30:51.751Z,102017.45
2019-04-29T02:31:56.654Z,102022.35
2019-04-29T02:33:01.923Z,102021.59
2019-04-29T02:34:07.267Z,102019.87
2019-04-29T02:35:12.283Z,102022.16
2019-04-29T02:36:17.318Z,102021.30
2019-04-29T02:37:28.381Z,102022.23
2019-04-29T02:38:42.166Z,102020.05
2019-04-29T02:39:53.324Z,102025.35
2019-04-29T02:41:06.404Z,102019.19
2019-04-29T02:42:45.319Z,102020.05
2019-04-29T02:43:52.296Z,102020.52
2019-04-29T02:45:04.308Z,102025.81
2019-04-29T02:46:09.389Z,102028.00
2019-04-29T02:47:14.531Z,102024.49
2019-04-29T02:48:19.590Z,102021.84
2019-04-29T02:49:24.628Z,102021.95
2019-04-29T02:50:29.751Z,102025.75
2019-04-29T02:51:52.273Z,102021.77
2019-04-29T02:52:57.373Z,102027.83
2019-04-29T02:54:02.326Z,102022.52
2019-04-29T02:55:08.627Z,102021.20
2019-04-29T02:56:13.908Z,102024.64
2019-04-29T02:57:36.628Z,102021.98
2019-04-29T02:58:47.882Z,102018.38
2019-04-29T02:59:55.752Z,102022.35
2019-04-29T03:01:08.951Z,102025.86
2019-04-29T03:02:30.706Z,102019.70
2019-04-29T03:03:53.242Z,102026.33
2019-04-29T03:05:13.611Z,102030.30
2019-04-29T03:06:18.756Z,102027.36
2019-04-29T03:07:23.898Z,102030.94
2019-04-29T03:08:29.098Z,102025.75
2019-04-29T03:09:45.181Z,102025.75
2019-04-29T03:10:50.362Z,102023.48
2019-04-29T03:11:55.754Z,102023.48
2019-04-29T03:13:00.841Z,102026.14
2019-04-29T03:14:06.175Z,102018.73
2019-04-29T03:15:11.805Z,102025.81
2019-04-29T03:16:18.743Z,102025.92
2019-04-29T03:17:23.870Z,102022.98
2019-04-29T03:18:31.245Z,102027.48
2019-04-29T03:19:38.768Z,102025.88
2019-04-29T03:20:49.446Z,102024.72
2019-04-29T03:21:56.764Z,102020.52
2019-04-29T03:23:09.285Z,102024.28
2019-04-29T03:24:14.496Z,102011.52
2019-04-29T03:25:19.883Z,102014.56
2019-04-29T03:26:24.927Z,102014.56
2019-04-29T03:27:30.714Z,102018.14
2019-04-29T03:28:36.102Z,102015.95
2019-04-29T03:29:41.083Z,102020.96
2019-04-29T03:30:46.475Z,102020.96
2019-04-29T03:31:56.053Z,102021.42
2019-04-29T03:33:01.264Z,102024.53
2019-04-29T03:34:06.274Z,102020.20
2019-04-29T03:35:11.599Z,102025.50
2019-04-29T03:36:16.668Z,102020.54
2019-04-29T03:37:21.692Z,102029.17
2019-04-29T03:38:27.465Z,102037.13
2019-04-29T03:39:32.564Z,102029.64
2019-04-29T03:40:37.905Z,102031.50
2019-04-29T03:41:43.134Z,102038.58
2019-04-29T03:42:48.260Z,102037.75
2019-04-29T03:43:53.451Z,102036.96
2019-04-29T03:44:58.538Z,102038.85
2019-04-29T03:46:03.830Z,102033.16
2019-04-29T03:47:08.907Z,102026.65
2019-04-29T03:48:13.927Z,102040.34
2019-04-29T03:49:19.103Z,102040.34
2019-04-29T03:50:24.126Z,102041.67
2019-04-29T03:51:29.463Z,102035.11
2019-04-29T03:52:34.540Z,102045.24
2019-04-29T03:53:39.539Z,102041.73
2019-04-29T03:54:44.942Z,102032.73
2019-04-29T03:55:52.155Z,102041.20
2019-04-29T03:56:57.306Z,102045.08
2019-04-29T03:58:02.602Z,102047.09
2019-04-29T03:59:07.579Z,102043.87
2019-04-29T04:00:14.558Z,102049.11
2019-04-29T04:01:28.498Z,102045.53
2019-04-29T04:02:42.638Z,102042.95
2019-04-29T04:03:51.998Z,102053.30
2019-04-29T04:05:21.870Z,102054.17
2019-04-29T04:06:45.334Z,102063.34
2019-04-29T04:07:54.318Z,102059.53
2019-04-29T04:09:08.604Z,102060.39
2019-04-29T04:10:14.146Z,102060.09
2019-04-29T04:11:19.587Z,102047.09
2019-04-29T04:12:24.472Z,102059.41
2019-04-29T04:13:29.751Z,102055.50
2019-04-29T04:14:34.827Z,102055.67
2019-04-29T04:15:40.037Z,102052.72
2019-04-29T04:17:20.651Z,102059.81
2019-04-29T04:18:27.698Z,102054.11
2019-04-29T04:19:33.305Z,102056.47
2019-04-29T04:20:38.518Z,102050.87
2019-04-29T04:21:43.497Z,102055.14
2019-04-29T04:22:48.897Z,102056.00
2019-04-29T04:23:57.976Z,102060.37
2019-04-29T04:25:00.734Z,102062.06
2019-04-29T04:26:06.013Z,102060.67
2019-04-29T04:27:11.160Z,102061.36
2019-04-29T04:28:16.346Z,102061.36
2019-04-29T04:29:21.842Z,102064.60
2019-04-29T04:30:27.422Z,102069.73
2019-04-29T04:31:32.477Z,102069.73
2019-04-29T04:32:37.781Z,102065.59
2019-04-29T04:33:43.992Z,102069.79
2019-04-29T04:34:49.237Z,102070.02
2019-04-29T04:35:54.437Z,102065.14
2019-04-29T04:37:00.409Z,102064.78
2019-04-29T04:38:05.958Z,102068.09
2019-04-29T04:39:11.278Z,102067.98
2019-04-29T04:40:23.486Z,102060.90
2019-04-29T04:41:28.833Z,102069.17
2019-04-29T04:42:34.595Z,102072.48
2019-04-29T04:43:40.361Z,102082.45
2019-04-29T04:44:48.920Z,102073.56
2019-04-29T04:45:54.013Z,102073.86
2019-04-29T04:46:59.357Z,102072.00
2019-04-29T04:48:04.511Z,102070.20
2019-04-29T04:49:09.580Z,102069.25
2019-04-29T04:50:14.876Z,102069.17
2019-04-29T04:51:21.072Z,102072.12
2019-04-29T04:52:26.356Z,102066.82
2019-04-29T04:53:31.322Z,102065.50
2019-04-29T04:54:36.806Z,102072.52
2019-04-29T04:55:43.129Z,102070.69
2019-04-29T04:56:48.362Z,102073.84
2019-04-29T04:57:53.797Z,102071.19
2019-04-29T04:58:58.917Z,102069.08
2019-04-29T05:00:06.364Z,102069.17
2019-04-29T05:01:11.711Z,102073.22
2019-04-29T05:02:16.963Z,102071.90
2019-04-29T05:03:22.133Z,102075.97
2019-04-29T05:04:27.410Z,102080.81
2019-04-29T05:05:32.819Z,102084.39
2019-04-29T05:06:37.913Z,102085.72
2019-04-29T05:07:42.995Z,102082.67
2019-04-29T05:08:48.154Z,102086.17
2019-04-29T05:09:53.358Z,102083.99
2019-04-29T05:10:58.511Z,102088.89
2019-04-29T05:12:03.804Z,102087.21
2019-04-29T05:13:09.039Z,102086.34
2019-04-29T05:14:14.724Z,102089.92
2019-04-29T05:15:20.147Z,102092.11
2019-04-29T05:16:25.394Z,102094.30
2019-04-29T05:17:30.660Z,102092.11
2019-04-29T05:18:35.656Z,102081.39
2019-04-29T05:19:40.858Z,102081.39
2019-04-29T05:20:46.064Z,102094.37
2019-04-29T05:21:51.138Z,102091.72
2019-04-29T05:23:02.013Z,102090.95
2019-04-29T05:24:07.069Z,102095.86
2019-04-29T05:25:12.370Z,102095.86
2019-04-29T05:26:17.411Z,102094.53
2019-04-29T05:27:22.590Z,102095.86
2019-04-29T05:28:27.565Z,102098.05
2019-04-29T05:29:32.602Z,102098.97
2019-04-29T05:30:38.060Z,102100.23
2019-04-29T05:31:43.332Z,102100.23
2019-04-29T05:32:48.706Z,102101.95
2019-04-29T05:33:53.855Z,102099.66
2019-04-29T05:35:01.314Z,102105.75
2019-04-29T05:36:38.273Z,102107.38
2019-04-29T05:37:56.674Z,102110.78
2019-04-29T05:39:08.949Z,102099.36
2019-04-29T05:40:33.077Z,102112.45
2019-04-29T05:41:38.328Z,102114.30
2019-04-29T05:42:43.392Z,102108.92
2019-04-29T05:44:13.355Z,102120.34
2019-04-29T05:45:26.387Z,102122.64
2019-04-29T05:46:56.401Z,102123.16
2019-04-29T05:48:07.613Z,102130.30
2019-04-29T05:49:14.645Z,102125.89
2019-04-29T05:50:47.617Z,102126.80
2019-04-29T05:51:57.491Z,102127.38
2019-04-29T05:53:16.365Z,102132.31
2019-04-29T05:54:21.599Z,102133.11
2019-04-29T05:55:26.816Z,102133.61
2019-04-29T05:56:31.786Z,102135.44
2019-04-29T05:57:36.958Z,102138.66
2019-04-29T05:58:42.096Z,102134.03
2019-04-29T05:59:49.457Z,102143.35
2019-04-29T06:01:01.112Z,102143.45
2019-04-29T06:02:06.208Z,102139.69
2019-04-29T06:03:11.332Z,102140.75
2019-04-29T06:04:18.175Z,102143.50
2019-04-29T06:05:23.645Z,102140.48
2019-04-29T06:06:28.798Z,102142.88
2019-04-29T06:07:34.120Z,102144.52
2019-04-29T06:08:39.549Z,102139.95
2019-04-29T06:09:47.024Z,102148.59
2019-04-29T06:10:52.142Z,102140.55
2019-04-29T06:11:57.339Z,102143.77
2019-04-29T06:13:02.684Z,102144.83
2019-04-29T06:14:08.206Z,102150.23
2019-04-29T06:15:13.521Z,102150.44
2019-04-29T06:16:20.877Z,102149.78
2019-04-29T06:17:25.641Z,102149.67
2019-04-29T06:18:31.189Z,102151.67
2019-04-29T06:19:39.329Z,102147.96
2019-04-29T06:20:44.559Z,102155.27
2019-04-29T06:21:49.865Z,102158.80
2019-04-29T06:22:54.954Z,102154.80
2019-04-29T06:24:04.356Z,102155.94
2019-04-29T06:25:07.265Z,102151.95
2019-04-29T06:26:12.412Z,102158.05
2019-04-29T06:27:17.520Z,102155.20
2019-04-29T06:28:26.421Z,102156.34
2019-04-29T06:29:31.182Z,102160.52
2019-04-29T06:30:38.753Z,102157.95
2019-04-29T06:31:43.222Z,102165.15
2019-04-29T06:32:48.202Z,102157.48
2019-04-29T06:33:53.282Z,102159.09
2019-04-29T06:34:58.368Z,102161.16
2019-04-29T06:36:03.439Z,102161.83
2019-04-29T06:37:08.623Z,102161.63
2019-04-29T06:38:14.177Z,102154.23
2019-04-29T06:39:19.090Z,102156.58
2019-04-29T06:40:24.152Z,102158.58
2019-04-29T06:41:29.380Z,102161.63
2019-04-29T06:42:34.581Z,102160.17
2019-04-29T06:43:39.673Z,102158.38
2019-04-29T06:44:49.118Z,102161.42
2019-04-29T06:45:52.305Z,102161.42
2019-04-29T06:46:57.277Z,102159.98
2019-04-29T06:48:02.437Z,102150.78
2019-04-29T06:49:10.334Z,102154.77
2019-04-29T06:50:14.975Z,102162.36
2019-04-29T06:51:19.968Z,102165.02
2019-04-29T06:52:25.365Z,102160.68
2019-04-29T06:53:30.601Z,102160.77
2019-04-29T06:54:35.613Z,102166.67
2019-04-29T06:55:40.682Z,102166.75
2019-04-29T06:56:45.783Z,102165.62
2019-04-29T06:57:50.875Z,102167.03
2019-04-29T06:58:56.131Z,102163.16
2019-04-29T07:00:01.156Z,102166.75
2019-04-29T07:01:06.306Z,102162.02
2019-04-29T07:02:14.414Z,102167.81
2019-04-29T07:03:20.908Z,102167.34
2019-04-29T07:04:25.284Z,102169.06
2019-04-29T07:05:30.508Z,102162.77
2019-04-29T07:06:35.855Z,102169.80
2019-04-29T07:07:40.985Z,102170.55
2019-04-29T07:08:46.088Z,102171.80
2019-04-29T07:09:51.138Z,102163.81
2019-04-29T07:11:01.214Z,102175.78
2019-04-29T07:12:03.433Z,102175.31
2019-04-29T07:13:08.823Z,102171.21
2019-04-29T07:14:13.955Z,102172.46
2019-04-29T07:15:19.056Z,102171.88
2019-04-29T07:16:27.227Z,102168.94
2019-04-29T07:17:30.919Z,102172.25
2019-04-29T07:18:40.323Z,102169.01
2019-04-29T07:19:42.939Z,102165.59
2019-04-29T07:20:48.323Z,102173.27
2019-04-29T07:21:56.313Z,102172.13
2019-04-29T07:23:00.690Z,102175.44
2019-04-29T07:24:06.787Z,102171.72
2019-04-29T07:25:11.853Z,102172.58
2019-04-29T07:26:17.003Z,102176.45
2019-04-29T07:27:22.054Z,102172.85
2019-04-29T07:28:27.143Z,102178.91
2019-04-29T07:29:32.981Z,102178.36
2019-04-29T07:30:59.917Z,102170.77
2019-04-29T07:31:45.187Z,102179.48
2019-04-29T07:32:50.280Z,102172.72
2019-04-29T07:33:57.935Z,102174.82
2019-04-29T07:35:05.893Z,102179.59
2019-04-29T07:36:11.085Z,102178.05
2019-04-29T07:37:16.852Z,102178.91
2019-04-29T07:38:22.130Z,102181.49
2019-04-29T07:39:31.661Z,102176.91
2019-04-29T07:40:34.231Z,102185.55
2019-04-29T07:41:39.469Z,102182.42
2019-04-29T07:42:44.645Z,102181.27
2019-04-29T07:43:49.687Z,102181.06
2019-04-29T07:45:43.583Z,102178.76
2019-04-29T07:46:56.675Z,102181.42
2019-04-29T07:47:57.171Z,102179.53
2019-04-29T07:49:05.584Z,102176.87
2019-04-29T07:50:10.003Z,102183.88
2019-04-29T07:51:15.110Z,102184.27
2019-04-29T07:52:20.418Z,102181.05
2019-04-29T07:53:35.049Z,102179.12
2019-04-29T07:54:32.150Z,102179.86
2019-04-29T07:55:37.190Z,102182.31
2019-04-29T07:56:43.628Z,102185.75
2019-04-29T07:57:52.131Z,102178.97
2019-04-29T07:58:58.879Z,102183.27
2019-04-29T08:00:02.877Z,102183.14
2019-04-29T08:01:07.955Z,102180.01
2019-04-29T08:02:12.986Z,102185.52
2019-04-29T08:03:18.062Z,102179.59
2019-04-29T08:04:23.270Z,102177.58
2019-04-29T08:05:29.814Z,102177.84
2019-04-29T08:06:38.257Z,102174.97
2019-04-29T08:07:42.534Z,102173.42
2019-04-29T08:08:55.122Z,102175.05
2019-04-29T08:09:56.204Z,102181.12
2019-04-29T08:11:01.410Z,102181.03
2019-04-29T08:12:06.588Z,102179.97
2019-04-29T08:13:12.730Z,102177.17
2019-04-29T08:14:19.119Z,102175.76
2019-04-29T08:15:24.418Z,102176.02
2019-04-29T08:16:29.647Z,102178.69
2019-04-29T08:17:34.650Z,102176.41
2019-04-29T08:18:39.928Z,102173.73
2019-04-29T08:19:44.940Z,102174.09
2019-04-29T08:20:50.254Z,102170.00
2019-04-29T08:21:55.366Z,102174.38
2019-04-29T08:23:02.588Z,102168.94
2019-04-29T08:24:11.610Z,102169.70
2019-04-29T08:25:14.656Z,102175.38
2019-04-29T08:26:19.689Z,102168.16
2019-04-29T08:27:24.783Z,102169.75
2019-04-29T08:28:30.133Z,102168.41
2019-04-29T08:29:35.832Z,102166.61
2019-04-29T08:30:45.759Z,102166.01
2019-04-29T08:31:52.045Z,102166.74
2019-04-29T08:32:55.432Z,102159.13
2019-04-29T08:34:01.006Z,102163.89
2019-04-29T08:35:06.397Z,102160.63
2019-04-29T08:36:11.435Z,102167.08
2019-04-29T08:37:16.630Z,102167.34
2019-04-29T08:38:21.725Z,102165.91
2019-04-29T08:39:29.530Z,102167.41
2019-04-29T08:40:34.543Z,102164.15
2019-04-29T08:41:39.703Z,102166.22
2019-04-29T08:42:49.295Z,102165.17
2019-04-29T08:44:21.490Z,102165.52
2019-04-29T08:45:40.471Z,102160.19
2019-04-29T08:47:04.503Z,102161.65
2019-04-29T08:48:09.901Z,102164.66
2019-04-29T08:49:15.234Z,102164.66
2019-04-29T08:50:20.515Z,102158.85
2019-04-29T08:51:25.587Z,102167.62
2019-04-29T08:52:30.616Z,102165.69
2019-04-29T08:53:35.758Z,102166.16
2019-04-29T08:54:40.722Z,102161.21
2019-04-29T08:55:45.776Z,102164.73
2019-04-29T08:57:02.183Z,102169.37
2019-04-29T08:57:57.565Z,102165.76
2019-04-29T08:59:02.555Z,102164.59
2019-04-29T09:00:09.372Z,102167.89
2019-04-29T09:01:14.420Z,102164.05
2019-04-29T09:02:33.684Z,102162.50
2019-04-29T09:03:39.663Z,102164.09
2019-04-29T09:04:33.832Z,102162.66
2019-04-29T09:05:41.667Z,102158.44
2019-04-29T09:06:46.739Z,102160.88
2019-04-29T09:07:57.136Z,102157.13
2019-04-29T09:08:59.836Z,102161.64
2019-04-29T09:10:05.473Z,102162.18
2019-04-29T09:11:12.810Z,102158.68
2019-04-29T09:12:19.200Z,102160.65
2019-04-29T09:13:24.290Z,102163.00
2019-04-29T09:14:29.789Z,102156.09
2019-04-29T09:15:35.309Z,102154.44
2019-04-29T09:16:40.549Z,102154.31
2019-04-29T09:17:45.847Z,102162.47
2019-04-29T09:18:51.078Z,102155.56
2019-04-29T09:19:56.209Z,102150.86
2019-04-29T09:21:01.205Z,102149.77
2019-04-29T09:22:08.081Z,102152.21
2019-04-29T09:23:15.739Z,102145.30
2019-04-29T09:24:20.864Z,102155.18
2019-04-29T09:26:01.734Z,102156.63
2019-04-29T09:27:16.205Z,102148.90
2019-04-29T09:28:27.004Z,102145.28
2019-04-29T09:29:30.669Z,102144.20
2019-04-29T09:30:38.502Z,102142.06
2019-04-29T09:31:42.481Z,102142.58
2019-04-29T09:32:47.575Z,102139.67
2019-04-29T09:34:06.009Z,102141.77
2019-04-29T09:35:00.539Z,102134.47
2019-04-29T09:36:09.301Z,102138.23
2019-04-29T09:37:12.596Z,102143.34
2019-04-29T09:38:17.706Z,102140.34
2019-04-29T09:39:23.004Z,102136.33
2019-04-29T09:40:30.132Z,102138.91
2019-04-29T09:41:48.626Z,102135.37
2019-04-29T09:43:00.704Z,102131.50
2019-04-29T09:44:23.412Z,102125.91
2019-04-29T09:45:34.200Z,102129.82
2019-04-29T09:46:39.347Z,102116.69
2019-04-29T09:47:44.735Z,102114.84
2019-04-29T09:48:49.747Z,102120.19
2019-04-29T09:49:55.010Z,102123.85
2019-04-29T09:51:00.111Z,102117.30
2019-04-29T09:52:05.702Z,102120.83
2019-04-29T09:53:10.894Z,102121.57
2019-04-29T09:54:16.277Z,102120.12
2019-04-29T09:55:22.158Z,102121.31
2019-04-29T09:56:27.484Z,102119.72
2019-04-29T09:57:34.174Z,102128.98
2019-04-29T09:58:39.309Z,102120.84
2019-04-29T09:59:49.586Z,102121.67
2019-04-29T10:01:22.611Z,102119.74
2019-04-29T10:02:36.484Z,102118.27
2019-04-29T10:04:02.095Z,102116.92
2019-04-29T10:05:24.988Z,102115.48
2019-04-29T10:06:32.773Z,102117.53
2019-04-29T10:07:38.100Z,102116.20
2019-04-29T10:08:43.367Z,102111.70
2019-04-29T10:09:56.838Z,102115.36
2019-04-29T10:10:55.332Z,102113.15
2019-04-29T10:12:00.494Z,102105.13
2019-04-29T10:13:05.855Z,102109.50
2019-04-29T10:14:11.014Z,102109.14
2019-04-29T10:15:17.913Z,102106.21
2019-04-29T10:16:39.459Z,102111.94
2019-04-29T10:17:55.707Z,102106.21
2019-04-29T10:19:05.311Z,102107.32
2019-04-29T10:20:33.781Z,102114.98
2019-04-29T10:21:39.269Z,102105.23
2019-04-29T10:22:44.377Z,102097.34
2019-04-29T10:23:49.725Z,102101.98
2019-04-29T10:24:54.903Z,102095.03
2019-04-29T10:26:00.593Z,102103.69
2019-04-29T10:27:07.339Z,102104.02
2019-04-29T10:28:12.602Z,102105.01
2019-04-29T10:29:20.316Z,102103.17
2019-04-29T10:30:26.792Z,102101.71
2019-04-29T10:31:33.577Z,102102.58
2019-04-29T10:32:42.334Z,102096.25
2019-04-29T10:33:50.234Z,102099.66
2019-04-29T10:34:54.942Z,102097.74
2019-04-29T10:36:00.199Z,102095.66
2019-04-29T10:37:06.613Z,102099.44
2019-04-29T10:38:11.922Z,102097.23
2019-04-29T10:39:42.559Z,102092.75
2019-04-29T10:41:05.314Z,102094.45
2019-04-29T10:42:10.923Z,102094.21
2019-04-29T10:43:41.313Z,102098.94
2019-04-29T10:44:56.884Z,102086.52
2019-04-29T10:46:21.196Z,102088.23
2019-04-29T10:47:43.904Z,102087.75
2019-04-29T10:48:59.119Z,102085.31
2019-04-29T10:50:10.707Z,102084.35
2019-04-29T10:51:16.293Z,102077.04
2019-04-29T10:52:21.535Z,102079.95
2019-04-29T10:53:28.886Z,102085.19
2019-04-29T10:54:34.004Z,102080.21
2019-04-29T10:55:39.523Z,102071.56
2019-04-29T10:56:44.782Z,102074.36
2019-04-29T10:57:51.433Z,102074.11
2019-04-29T10:58:56.681Z,102069.84
2019-04-29T11:00:24.167Z,102078.95
2019-04-29T11:02:25.567Z,102075.33
2019-04-29T11:03:30.986Z,102076.77
2019-04-29T11:04:38.028Z,102074.91
2019-04-29T11:05:59.997Z,102064.45
2019-04-29T11:06:53.805Z,102080.77
2019-04-29T11:08:05.575Z,102069.23
2019-04-29T11:09:28.077Z,102067.78
2019-04-29T11:10:33.371Z,102074.09
2019-04-29T11:11:38.554Z,102065.36
2019-04-29T11:12:43.954Z,102066.69
2019-04-29T11:13:50.618Z,102067.06
2019-04-29T11:14:55.802Z,102062.05
2019-04-29T11:16:00.976Z,102061.71
2019-04-29T11:17:15.865Z,102059.38
2019-04-29T11:18:12.901Z,102066.81
2019-04-29T11:19:19.212Z,102057.19
2019-04-29T11:20:24.396Z,102060.07
2019-04-29T11:21:31.279Z,102057.25
2019-04-29T11:22:44.360Z,102064.06
2019-04-29T11:23:58.002Z,102061.61
2019-04-29T11:25:14.631Z,102063.58
2019-04-29T11:26:44.622Z,102059.34
2019-04-29T11:27:56.019Z,102059.93
2019-04-29T11:29:00.206Z,102061.27
2019-04-29T11:30:07.980Z,102065.17
2019-04-29T11:31:14.030Z,102053.72
2019-04-29T11:32:36.376Z,102055.17
2019-04-29T11:34:00.496Z,102057.94
2019-04-29T11:35:13.568Z,102059.12
2019-04-29T11:36:20.611Z,102050.50
2019-04-29T11:37:25.757Z,102054.63
2019-04-29T11:38:33.359Z,102052.06
2019-04-29T11:39:37.713Z,102052.69
2019-04-29T11:40:44.081Z,102055.52
2019-04-29T11:41:50.289Z,102053.32
2019-04-29T11:42:56.727Z,102040.89
2019-04-29T11:44:01.818Z,102053.32
2019-04-29T11:45:09.222Z,102037.73
2019-04-29T11:46:15.595Z,102042.12
2019-04-29T11:47:24.902Z,102041.49
2019-04-29T11:48:27.881Z,102039.67
2019-04-29T11:49:39.010Z,102040.01
2019-04-29T11:50:57.933Z,102041.72
2019-04-29T11:52:09.767Z,102038.92
2019-04-29T11:53:11.360Z,102027.09
2019-04-29T11:54:18.105Z,102028.17
2019-04-29T11:55:23.507Z,102026.68
2019-04-29T11:56:28.876Z,102032.81
2019-04-29T11:57:46.787Z,102039.95
2019-04-29T11:59:04.919Z,102044.29
2019-04-29T12:00:24.503Z,102041.45
2019-04-29T12:01:47.120Z,102036.19
2019-04-29T12:02:57.406Z,102037.78
2019-04-29T12:04:05.766Z,102035.59
2019-04-29T12:05:31.368Z,102034.24
2019-04-29T12:06:36.762Z,102038.16
2019-04-29T12:07:41.842Z,102026.09
2019-04-29T12:08:48.260Z,102031.78
2019-04-29T12:09:53.787Z,102027.11
2019-04-29T12:11:07.298Z,102027.79
2019-04-29T12:12:07.907Z,102026.88
2019-04-29T12:13:22.926Z,102023.23
2019-04-29T12:14:37.998Z,102019.81
2019-04-29T12:15:57.217Z,102021.79
2019-04-29T12:17:12.515Z,102025.23
2019-04-29T12:18:20.227Z,102021.59
2019-04-29T12:19:28.614Z,102021.86
2019-04-29T12:20:41.514Z,102020.94
2019-04-29T12:21:46.672Z,102016.70
2019-04-29T12:22:52.056Z,102021.21
2019-04-29T12:23:59.006Z,102016.70
2019-04-29T12:25:04.390Z,102008.39
2019-04-29T12:26:11.297Z,102010.16
2019-04-29T12:27:19.882Z,102005.39
2019-04-29T12:28:23.379Z,102012.28
2019-04-29T12:29:28.683Z,102010.25
2019-04-29T12:30:37.590Z,102005.92
2019-04-29T12:32:00.646Z,102007.91
2019-04-29T12:33:28.456Z,102009.22
2019-04-29T12:34:45.388Z,102020.16
2019-04-29T12:36:03.344Z,102010.56
2019-04-29T12:37:15.853Z,102009.06
2019-04-29T12:38:50.737Z,101999.55
2019-04-29T12:40:23.924Z,102012.20
2019-04-29T12:41:49.388Z,102002.87
2019-04-29T12:43:11.356Z,101995.84
2019-04-29T12:44:35.292Z,101997.91
2019-04-29T12:45:47.310Z,101995.15
2019-04-29T12:46:58.575Z,101992.83
2019-04-29T12:48:06.465Z,101999.33
2019-04-29T12:49:13.847Z,102000.31
2019-04-29T12:50:21.700Z,102000.22
2019-04-29T12:51:25.270Z,101991.75
2019-04-29T12:52:30.347Z,101992.52
2019-04-29T12:53:35.778Z,101985.97
2019-04-29T12:54:41.977Z,101991.82
2019-04-29T12:55:53.176Z,101988.98
2019-04-29T12:56:55.872Z,101988.86
2019-04-29T12:58:01.358Z,101987.72
2019-04-29T12:59:06.728Z,101989.44
2019-04-29T13:00:13.695Z,101988.79